createdAt,value
2018-10-18T00:00:40.864Z,39.40
2018-10-18T00:01:46.399Z,36.40
2018-10-18T00:02:51.939Z,38.60
2018-10-18T00:03:57.478Z,34.20
2018-10-18T00:05:03.029Z,37.40
2018-10-18T00:06:08.626Z,35.90
2018-10-18T00:07:14.095Z,36.50
2018-10-18T00:08:19.634Z,38.40
2018-10-18T00:09:25.178Z,37.80
2018-10-18T00:10:30.711Z,36.30
2018-10-18T00:11:36.256Z,36.20
2018-10-18T00:12:41.797Z,37.30
2018-10-18T00:13:47.329Z,38.10
2018-10-18T00:14:52.869Z,35.50
2018-10-18T00:15:58.404Z,37.80
2018-10-18T00:17:03.945Z,36.20
2018-10-18T00:18:09.532Z,35.20
2018-10-18T00:19:15.019Z,36.00
2018-10-18T00:20:20.560Z,34.60
2018-10-18T00:21:26.098Z,35.90
2018-10-18T00:22:31.637Z,35.80
2018-10-18T00:23:37.174Z,36.40
2018-10-18T00:24:42.717Z,35.30
2018-10-18T00:25:48.255Z,35.90
2018-10-18T00:26:53.800Z,36.00
2018-10-18T00:27:59.335Z,33.70
2018-10-18T00:29:04.871Z,33.70
2018-10-18T00:30:10.488Z,33.80
2018-10-18T00:31:15.953Z,34.50
2018-10-18T00:32:21.495Z,34.80
2018-10-18T00:33:27.033Z,34.60
2018-10-18T00:34:32.573Z,32.80
2018-10-18T00:35:38.105Z,33.90
2018-10-18T00:36:43.648Z,34.80
2018-10-18T00:37:49.189Z,35.30
2018-10-18T00:38:54.723Z,35.50
2018-10-18T00:40:00.264Z,36.20
2018-10-18T00:41:05.801Z,33.40
2018-10-18T00:42:11.412Z,34.00
2018-10-18T00:43:16.889Z,33.70
2018-10-18T00:44:22.423Z,33.70
2018-10-18T00:45:27.958Z,35.30
2018-10-18T00:46:33.495Z,33.00
2018-10-18T00:47:39.045Z,35.70
2018-10-18T00:48:44.580Z,33.40
2018-10-18T00:49:50.119Z,32.30
2018-10-18T00:50:55.653Z,36.00
2018-10-18T00:52:01.194Z,34.00
2018-10-18T00:53:06.729Z,33.50
2018-10-18T00:54:12.292Z,34.10
2018-10-18T00:55:17.810Z,33.00
2018-10-18T00:56:23.350Z,34.40
2018-10-18T00:57:28.888Z,31.40
2018-10-18T00:58:34.431Z,33.00
2018-10-18T00:59:39.963Z,32.70
2018-10-18T01:00:45.502Z,32.50
2018-10-18T01:01:51.043Z,33.10
2018-10-18T01:02:56.580Z,33.30
2018-10-18T01:04:02.120Z,31.80
2018-10-18T01:05:07.659Z,31.40
2018-10-18T01:06:13.348Z,32.90
2018-10-18T01:07:18.740Z,32.30
2018-10-18T01:08:24.278Z,30.20
2018-10-18T01:09:29.823Z,31.60
2018-10-18T01:10:35.355Z,31.00
2018-10-18T01:11:40.898Z,30.90
2018-10-18T01:12:46.558Z,30.50
2018-10-18T01:13:51.990Z,30.00
2018-10-18T01:14:57.516Z,31.50
2018-10-18T01:16:03.051Z,29.70
2018-10-18T01:17:08.594Z,29.70
2018-10-18T01:18:14.183Z,28.80
2018-10-18T01:19:19.668Z,30.70
2018-10-18T01:20:25.214Z,29.90
2018-10-18T01:21:30.747Z,29.10
2018-10-18T01:22:36.291Z,29.30
2018-10-18T01:23:41.827Z,28.10
2018-10-18T01:24:47.367Z,29.50
2018-10-18T01:25:52.951Z,27.10
2018-10-18T01:26:58.443Z,27.40
2018-10-18T01:28:03.981Z,28.20
2018-10-18T01:29:09.520Z,29.20
2018-10-18T01:30:15.229Z,26.80
2018-10-18T01:31:20.598Z,28.80
2018-10-18T01:32:26.139Z,28.20
2018-10-18T01:33:31.677Z,30.20
2018-10-18T01:34:37.220Z,27.50
2018-10-18T01:35:42.755Z,27.20
2018-10-18T01:36:48.294Z,28.30
2018-10-18T01:37:53.836Z,28.90
2018-10-18T01:38:59.373Z,26.90
2018-10-18T01:40:04.910Z,27.10
2018-10-18T01:41:10.457Z,26.50
2018-10-18T01:42:16.063Z,26.40
2018-10-18T01:43:21.528Z,26.80
2018-10-18T01:44:27.077Z,27.90
2018-10-18T01:45:32.607Z,25.40
2018-10-18T01:46:38.146Z,25.00
2018-10-18T01:47:43.687Z,24.70
2018-10-18T01:48:49.222Z,25.10
2018-10-18T01:49:54.795Z,26.20
2018-10-18T01:51:00.308Z,26.20
2018-10-18T01:52:05.842Z,25.20
2018-10-18T01:53:11.380Z,27.30
2018-10-18T01:54:17.045Z,27.40
2018-10-18T01:55:22.463Z,26.00
2018-10-18T01:56:27.998Z,27.50
2018-10-18T01:57:33.538Z,24.90
2018-10-18T01:58:39.079Z,27.10
2018-10-18T01:59:44.619Z,24.80
2018-10-18T02:00:50.155Z,25.70
2018-10-18T02:01:55.755Z,25.10
2018-10-18T02:03:01.273Z,24.50
2018-10-18T02:04:06.771Z,24.40
2018-10-18T02:05:12.318Z,25.40
2018-10-18T02:06:17.921Z,23.80
2018-10-18T02:07:23.394Z,22.70
2018-10-18T02:08:28.930Z,25.40
2018-10-18T02:09:34.465Z,21.90
2018-10-18T02:10:40.015Z,24.00
2018-10-18T02:11:45.546Z,24.10
2018-10-18T02:12:51.086Z,26.30
2018-10-18T02:13:56.624Z,24.90
2018-10-18T02:15:02.168Z,23.80
2018-10-18T02:16:07.703Z,25.00
2018-10-18T02:17:13.248Z,26.10
2018-10-18T02:18:18.915Z,24.40
2018-10-18T02:19:24.328Z,24.60
2018-10-18T02:20:29.862Z,23.90
2018-10-18T02:21:35.398Z,23.20
2018-10-18T02:22:40.937Z,25.60
2018-10-18T02:23:46.481Z,25.50
2018-10-18T02:24:52.068Z,25.40
2018-10-18T02:25:57.557Z,24.50
2018-10-18T02:27:03.094Z,24.60
2018-10-18T02:28:08.641Z,24.00
2018-10-18T02:29:14.180Z,21.70
2018-10-18T02:30:19.721Z,21.70
2018-10-18T02:31:25.259Z,23.10
2018-10-18T02:32:30.795Z,22.00
2018-10-18T02:33:36.329Z,23.70
2018-10-18T02:34:41.868Z,24.00
2018-10-18T02:35:47.411Z,24.00
2018-10-18T02:36:52.955Z,21.90
2018-10-18T02:37:58.489Z,21.30
2018-10-18T02:39:04.036Z,22.80
2018-10-18T02:40:09.573Z,22.40
2018-10-18T02:41:15.105Z,23.10
2018-10-18T02:42:20.686Z,21.30
2018-10-18T02:43:26.180Z,21.70
2018-10-18T02:44:31.723Z,22.40
2018-10-18T02:45:37.262Z,23.10
2018-10-18T02:46:42.801Z,23.60
2018-10-18T02:47:48.339Z,23.30
2018-10-18T02:48:53.880Z,23.00
2018-10-18T02:49:59.416Z,22.70
2018-10-18T02:51:04.957Z,22.30
2018-10-18T02:52:10.497Z,23.00
2018-10-18T02:53:16.042Z,24.00
2018-10-18T02:54:21.640Z,24.00
2018-10-18T02:55:27.120Z,21.90
2018-10-18T02:56:32.652Z,23.90
2018-10-18T02:57:38.201Z,22.90
2018-10-18T02:58:43.729Z,25.20
2018-10-18T02:59:49.275Z,25.00
2018-10-18T03:00:54.814Z,26.80
2018-10-18T03:02:00.350Z,24.90
2018-10-18T03:03:06.618Z,24.10
2018-10-18T03:04:11.433Z,23.80
2018-10-18T03:05:16.970Z,24.80
2018-10-18T03:06:22.506Z,39.10
2018-10-18T03:07:28.052Z,30.80
2018-10-18T03:08:33.583Z,32.30
2018-10-18T03:09:39.122Z,29.80
2018-10-18T03:10:44.662Z,27.50
2018-10-18T03:11:50.202Z,27.20
2018-10-18T03:12:55.740Z,25.80
2018-10-18T03:14:01.278Z,24.50
2018-10-18T03:15:06.823Z,25.30
2018-10-18T03:16:12.471Z,24.70
2018-10-18T03:17:17.898Z,24.30
2018-10-18T03:18:23.436Z,23.20
2018-10-18T03:19:28.981Z,23.00
2018-10-18T03:20:34.514Z,22.50
2018-10-18T03:21:40.057Z,22.20
2018-10-18T03:22:45.592Z,23.40
2018-10-18T03:23:51.138Z,22.50
2018-10-18T03:24:56.674Z,20.80
2018-10-18T03:26:02.213Z,20.70
2018-10-18T03:27:07.751Z,21.90
2018-10-18T03:28:13.289Z,21.20
2018-10-18T03:29:18.842Z,21.00
2018-10-18T03:30:24.365Z,20.60
2018-10-18T03:31:29.914Z,20.60
2018-10-18T03:32:35.447Z,20.00
2018-10-18T03:33:40.984Z,21.90
2018-10-18T03:34:46.524Z,21.80
2018-10-18T03:35:52.087Z,20.80
2018-10-18T03:36:57.602Z,21.10
2018-10-18T03:38:03.141Z,19.50
2018-10-18T03:39:08.683Z,20.50
2018-10-18T03:40:14.219Z,21.80
2018-10-18T03:41:19.817Z,20.90
2018-10-18T03:42:25.299Z,20.30
2018-10-18T03:43:30.839Z,20.00
2018-10-18T03:44:36.381Z,21.20
2018-10-18T03:45:41.913Z,22.00
2018-10-18T03:46:47.457Z,21.00
2018-10-18T03:47:53.027Z,21.70
2018-10-18T03:48:58.535Z,19.20
2018-10-18T03:50:04.078Z,19.80
2018-10-18T03:51:09.610Z,20.70
2018-10-18T03:52:15.154Z,19.40
2018-10-18T03:53:20.697Z,18.50
2018-10-18T03:54:26.235Z,18.50
2018-10-18T03:55:31.774Z,18.00
2018-10-18T03:56:37.307Z,18.60
2018-10-18T03:57:42.845Z,18.30
2018-10-18T03:58:48.388Z,18.40
2018-10-18T03:59:53.938Z,18.80
2018-10-18T04:00:59.471Z,17.10
2018-10-18T04:02:05.001Z,17.20
2018-10-18T04:03:10.549Z,17.80
2018-10-18T04:04:16.082Z,18.60
2018-10-18T04:05:21.620Z,17.20
2018-10-18T04:06:27.175Z,15.90
2018-10-18T04:07:32.699Z,17.50
2018-10-18T04:08:38.237Z,17.80
2018-10-18T04:09:43.777Z,17.20
2018-10-18T04:10:49.319Z,16.80
2018-10-18T04:11:54.877Z,16.40
2018-10-18T04:13:00.412Z,16.70
2018-10-18T04:14:05.938Z,17.00
2018-10-18T04:15:11.472Z,17.00
2018-10-18T04:16:17.020Z,16.80
2018-10-18T04:17:22.557Z,14.30
2018-10-18T04:18:28.165Z,16.90
2018-10-18T04:19:33.635Z,16.40
2018-10-18T04:20:39.171Z,16.80
2018-10-18T04:21:44.708Z,16.90
2018-10-18T04:22:50.253Z,16.20
2018-10-18T04:23:55.830Z,17.70
2018-10-18T04:25:01.326Z,17.20
2018-10-18T04:26:06.872Z,17.20
2018-10-18T04:27:12.409Z,18.10
2018-10-18T04:28:17.946Z,17.40
2018-10-18T04:29:23.487Z,16.60
2018-10-18T04:30:29.029Z,17.30
2018-10-18T04:31:34.563Z,17.80
2018-10-18T04:32:40.109Z,18.40
2018-10-18T04:33:45.644Z,17.90
2018-10-18T04:34:51.180Z,18.70
2018-10-18T04:35:56.748Z,19.70
2018-10-18T04:37:02.266Z,17.90
2018-10-18T04:38:07.800Z,18.50
2018-10-18T04:39:13.338Z,18.20
2018-10-18T04:40:18.880Z,16.60
2018-10-18T04:41:24.420Z,17.40
2018-10-18T04:42:29.960Z,17.90
2018-10-18T04:43:35.500Z,18.80
2018-10-18T04:44:41.038Z,18.40
2018-10-18T04:45:46.581Z,17.70
2018-10-18T04:46:52.118Z,17.90
2018-10-18T04:47:57.872Z,18.20
2018-10-18T04:49:03.191Z,16.40
2018-10-18T04:50:08.733Z,16.80
2018-10-18T04:51:14.271Z,17.50
2018-10-18T04:52:19.814Z,16.30
2018-10-18T04:53:25.356Z,19.00
2018-10-18T04:54:30.889Z,16.90
2018-10-18T04:55:36.430Z,17.30
2018-10-18T04:56:42.020Z,18.10
2018-10-18T04:57:47.509Z,17.10
2018-10-18T04:58:53.050Z,17.10
2018-10-18T04:59:58.587Z,18.90
2018-10-18T05:01:04.170Z,17.80
2018-10-18T05:02:09.664Z,18.50
2018-10-18T05:03:15.211Z,18.00
2018-10-18T05:04:20.742Z,16.90
2018-10-18T05:05:26.284Z,18.20
2018-10-18T05:06:31.819Z,17.10
2018-10-18T05:07:37.362Z,18.10
2018-10-18T05:08:42.899Z,19.20
2018-10-18T05:09:48.438Z,16.90
2018-10-18T05:10:53.974Z,18.30
2018-10-18T05:11:59.519Z,19.90
2018-10-18T05:13:05.073Z,17.60
2018-10-18T05:14:10.596Z,18.20
2018-10-18T05:15:16.135Z,17.40
2018-10-18T05:16:21.679Z,16.90
2018-10-18T05:17:27.216Z,17.20
2018-10-18T05:18:32.755Z,17.00
2018-10-18T05:19:38.295Z,17.00
2018-10-18T05:20:43.830Z,15.90
2018-10-18T05:21:49.373Z,17.60
2018-10-18T05:22:54.915Z,17.70
2018-10-18T05:24:00.453Z,16.60
2018-10-18T05:25:06.112Z,16.30
2018-10-18T05:26:11.527Z,16.60
2018-10-18T05:27:17.070Z,16.50
2018-10-18T05:28:22.605Z,15.60
2018-10-18T05:29:28.146Z,16.80
2018-10-18T05:30:33.689Z,16.90
2018-10-18T05:31:39.266Z,15.30
2018-10-18T05:32:44.761Z,16.20
2018-10-18T05:33:50.303Z,15.20
2018-10-18T05:34:55.847Z,17.40
2018-10-18T05:36:01.382Z,14.40
2018-10-18T05:37:07.041Z,15.50
2018-10-18T05:38:12.469Z,16.70
2018-10-18T05:39:17.999Z,15.80
2018-10-18T05:40:23.536Z,15.20
2018-10-18T05:41:29.075Z,14.80
2018-10-18T05:42:34.616Z,15.40
2018-10-18T05:43:40.156Z,16.20
2018-10-18T05:44:45.693Z,14.70
2018-10-18T05:45:51.241Z,15.80
2018-10-18T05:46:56.835Z,14.90
2018-10-18T05:48:02.312Z,14.80
2018-10-18T05:49:07.901Z,15.70
2018-10-18T05:50:13.391Z,14.50
2018-10-18T05:51:18.935Z,15.10
2018-10-18T05:52:24.470Z,15.70
2018-10-18T05:53:30.057Z,14.60
2018-10-18T05:54:35.547Z,14.50
2018-10-18T05:55:41.093Z,15.70
2018-10-18T05:56:46.634Z,15.30
2018-10-18T05:57:52.175Z,14.60
2018-10-18T05:58:57.705Z,14.90
2018-10-18T06:00:03.259Z,15.10
2018-10-18T06:01:08.810Z,13.90
2018-10-18T06:02:14.323Z,15.10
2018-10-18T06:03:19.869Z,13.50
2018-10-18T06:04:25.405Z,13.20
2018-10-18T06:05:30.943Z,12.60
2018-10-18T06:06:36.483Z,13.80
2018-10-18T06:07:42.020Z,18.10
2018-10-18T06:08:47.560Z,21.30
2018-10-18T06:09:53.127Z,28.80
2018-10-18T06:10:58.642Z,22.50
2018-10-18T06:12:04.182Z,15.30
2018-10-18T06:13:09.775Z,14.30
2018-10-18T06:14:15.254Z,14.00
2018-10-18T06:15:20.797Z,14.70
2018-10-18T06:16:26.333Z,13.90
2018-10-18T06:17:31.885Z,13.50
2018-10-18T06:18:37.417Z,13.70
2018-10-18T06:19:42.949Z,13.00
2018-10-18T06:20:48.488Z,12.50
2018-10-18T06:21:54.077Z,13.20
2018-10-18T06:22:59.639Z,13.70
2018-10-18T06:24:05.109Z,13.20
2018-10-18T06:25:10.720Z,13.00
2018-10-18T06:26:16.185Z,12.60
2018-10-18T06:27:21.728Z,11.90
2018-10-18T06:28:27.272Z,12.70
2018-10-18T06:29:32.807Z,12.70
2018-10-18T06:30:38.346Z,12.40
2018-10-18T06:31:43.887Z,14.10
2018-10-18T06:32:49.460Z,11.90
2018-10-18T06:33:54.961Z,13.70
2018-10-18T06:35:00.520Z,13.30
2018-10-18T06:36:06.039Z,15.30
2018-10-18T06:37:11.625Z,13.20
2018-10-18T06:38:17.118Z,12.90
2018-10-18T06:39:22.746Z,13.00
2018-10-18T06:40:28.199Z,12.90
2018-10-18T06:41:33.738Z,13.70
2018-10-18T06:42:39.279Z,12.80
2018-10-18T06:43:44.820Z,12.70
2018-10-18T06:44:50.361Z,13.80
2018-10-18T06:45:55.896Z,13.20
2018-10-18T06:47:01.956Z,13.30
2018-10-18T06:48:07.010Z,14.30
2018-10-18T06:49:12.620Z,13.10
2018-10-18T06:50:18.049Z,13.70
2018-10-18T06:51:23.592Z,13.10
2018-10-18T06:52:29.127Z,12.90
2018-10-18T08:00:48.818Z,15.10
2018-10-18T08:01:54.218Z,14.60
2018-10-18T08:39:09.405Z,16.70
2018-10-18T08:40:06.813Z,15.40
2018-10-18T08:41:12.349Z,15.70
2018-10-18T08:42:17.891Z,15.00
2018-10-18T08:43:23.432Z,14.70
2018-10-18T08:44:28.994Z,15.00
2018-10-18T08:45:34.509Z,15.00
2018-10-18T08:46:40.045Z,15.80
2018-10-18T08:47:45.582Z,15.40
2018-10-18T08:48:51.122Z,14.40
2018-10-18T08:49:56.726Z,14.90
2018-10-18T08:51:02.202Z,16.00
2018-10-18T08:52:07.743Z,15.30
2018-10-18T08:53:13.283Z,14.40
2018-10-18T08:54:18.826Z,14.90
2018-10-18T08:55:24.424Z,16.50
2018-10-18T08:56:29.902Z,16.00
2018-10-18T08:57:35.442Z,15.20
2018-10-18T08:58:40.984Z,15.60
2018-10-18T08:59:46.521Z,13.40
2018-10-18T09:00:52.085Z,14.80
2018-10-18T09:01:57.608Z,13.40
2018-10-18T09:03:03.147Z,14.40
2018-10-18T09:04:08.689Z,14.20
2018-10-18T09:05:14.219Z,14.40
2018-10-18T09:06:19.763Z,13.80
2018-10-18T09:07:25.303Z,13.20
2018-10-18T09:08:30.843Z,14.80
2018-10-18T09:09:36.382Z,13.30
2018-10-18T09:10:41.922Z,14.20
2018-10-18T09:11:47.466Z,13.60
2018-10-18T09:12:53.009Z,13.20
2018-10-18T09:13:58.541Z,13.60
2018-10-18T09:15:04.085Z,15.30
2018-10-18T09:16:09.748Z,14.10
2018-10-18T09:17:15.163Z,13.20
2018-10-18T09:18:20.706Z,14.50
2018-10-18T09:19:26.245Z,19.20
2018-10-18T09:20:31.786Z,20.90
2018-10-18T09:21:37.328Z,18.20
2018-10-18T09:22:42.866Z,17.00
2018-10-18T09:23:48.464Z,14.60
2018-10-18T09:24:53.958Z,14.90
2018-10-18T09:25:59.487Z,13.30
2018-10-18T09:27:05.022Z,13.70
2018-10-18T09:28:10.561Z,12.80
2018-10-18T09:29:16.099Z,13.30
2018-10-18T09:30:21.652Z,13.40
2018-10-18T09:31:27.192Z,12.20
2018-10-18T09:32:32.728Z,12.90
2018-10-18T09:33:38.267Z,11.80
2018-10-18T09:34:43.802Z,11.80
2018-10-18T09:35:49.340Z,12.10
2018-10-18T09:36:54.899Z,12.20
2018-10-18T09:38:00.420Z,13.10
2018-10-18T09:39:05.964Z,12.50
2018-10-18T09:40:11.503Z,13.00
2018-10-18T09:41:17.043Z,14.20
2018-10-18T09:42:22.583Z,14.50
2018-10-18T09:43:28.123Z,12.90
2018-10-18T09:44:33.671Z,13.00
2018-10-18T09:45:39.205Z,12.10
2018-10-18T09:46:44.741Z,13.20
2018-10-18T09:47:50.283Z,12.80
2018-10-18T09:48:55.829Z,12.00
2018-10-18T09:50:01.364Z,11.50
2018-10-18T09:51:06.905Z,12.40
2018-10-18T09:52:12.441Z,12.40
2018-10-18T09:53:17.984Z,11.00
2018-10-18T09:54:23.525Z,12.00
2018-10-18T09:55:29.088Z,11.00
2018-10-18T09:56:34.605Z,11.00
2018-10-18T09:57:40.149Z,11.80
2018-10-18T09:58:45.686Z,12.30
2018-10-18T09:59:51.228Z,11.00
2018-10-18T10:00:56.832Z,12.00
2018-10-18T10:02:02.309Z,10.90
2018-10-18T10:03:07.844Z,13.30
2018-10-18T10:04:13.442Z,11.50
2018-10-18T10:05:18.923Z,11.40
2018-10-18T10:06:24.466Z,11.60
2018-10-18T10:07:30.004Z,12.30
2018-10-18T10:08:35.543Z,10.20
2018-10-18T10:09:41.084Z,10.40
2018-10-18T10:10:46.633Z,10.40
2018-10-18T10:11:52.255Z,10.10
2018-10-18T10:12:57.727Z,10.30
2018-10-18T10:14:03.245Z,10.90
2018-10-18T10:15:08.784Z,10.90
2018-10-18T10:16:14.323Z,11.20
2018-10-18T10:17:19.894Z,10.40
2018-10-18T10:18:25.415Z,10.50
2018-10-18T10:19:30.946Z,10.70
2018-10-18T10:20:36.491Z,10.70
2018-10-18T10:21:42.026Z,10.50
2018-10-18T10:22:47.568Z,10.00
2018-10-18T10:23:53.112Z,10.40
2018-10-18T10:24:58.660Z,10.20
2018-10-18T10:26:04.196Z,11.60
2018-10-18T10:27:09.727Z,10.90
2018-10-18T10:28:15.267Z,11.10
2018-10-18T10:29:20.816Z,9.80
2018-10-18T10:30:26.446Z,11.20
2018-10-18T10:31:31.894Z,11.40
2018-10-18T10:32:37.433Z,10.80
2018-10-18T10:33:42.970Z,11.00
2018-10-18T10:34:48.510Z,11.20
2018-10-18T10:35:54.050Z,11.10
2018-10-18T10:36:59.629Z,10.70
2018-10-18T10:38:05.134Z,9.70
2018-10-18T10:39:10.690Z,10.00
2018-10-18T10:40:16.278Z,10.80
2018-10-18T10:41:21.753Z,11.20
2018-10-18T10:42:27.295Z,11.40
2018-10-18T10:43:32.838Z,9.70
2018-10-18T10:44:38.409Z,10.10
2018-10-18T10:45:43.955Z,9.30
2018-10-18T10:46:49.458Z,9.70
2018-10-18T10:47:55.013Z,10.00
2018-10-18T10:49:00.571Z,10.40
2018-10-18T10:50:06.143Z,9.80
2018-10-18T10:51:11.740Z,9.20
2018-10-18T10:52:17.306Z,10.00
2018-10-18T10:53:22.705Z,9.40
2018-10-18T10:54:28.239Z,10.10
2018-10-18T10:55:33.782Z,11.30
2018-10-18T10:56:39.320Z,10.20
2018-10-18T10:57:44.855Z,10.70
2018-10-18T10:58:50.428Z,10.30
2018-10-18T10:59:55.981Z,11.70
2018-10-18T11:01:01.477Z,11.10
2018-10-18T11:02:07.034Z,11.60
2018-10-18T11:03:12.645Z,10.10
2018-10-18T11:04:18.106Z,10.50
2018-10-18T11:05:23.642Z,10.80
2018-10-18T11:06:29.185Z,10.70
2018-10-18T11:07:34.722Z,10.30
2018-10-18T11:08:40.266Z,10.80
2018-10-18T11:09:46.011Z,10.40
2018-10-18T11:10:51.349Z,10.50
2018-10-18T11:11:56.954Z,10.40
2018-10-18T11:13:02.427Z,10.90
2018-10-18T11:14:08.057Z,11.00
2018-10-18T11:15:13.600Z,10.00
2018-10-18T11:16:19.052Z,10.30
2018-10-18T11:17:24.592Z,11.10
2018-10-18T11:18:30.131Z,11.20
2018-10-18T11:19:35.670Z,12.20
2018-10-18T11:20:41.209Z,10.90
2018-10-18T11:21:46.783Z,12.30
2018-10-18T11:22:52.291Z,11.10
2018-10-18T11:23:57.865Z,11.80
2018-10-18T11:25:03.376Z,11.80
2018-10-18T11:26:08.990Z,12.40
2018-10-18T11:27:14.502Z,10.90
2018-10-18T11:28:19.991Z,11.20
2018-10-18T11:29:25.534Z,12.50
2018-10-18T11:30:31.084Z,13.10
2018-10-18T11:31:36.615Z,12.70
2018-10-18T11:32:42.171Z,11.90
2018-10-18T11:33:47.694Z,12.60
2018-10-18T11:34:53.239Z,12.70
2018-10-18T11:35:58.789Z,12.90
2018-10-18T11:37:04.316Z,13.50
2018-10-18T11:38:09.912Z,12.90
2018-10-18T11:39:15.399Z,14.50
2018-10-18T11:40:20.935Z,13.30
2018-10-18T11:41:26.478Z,13.60
2018-10-18T11:42:32.020Z,12.60
2018-10-18T11:43:37.558Z,12.70
2018-10-18T11:44:43.097Z,12.70
2018-10-18T11:45:48.637Z,13.30
2018-10-18T11:46:54.180Z,11.60
2018-10-18T11:47:59.763Z,12.50
2018-10-18T11:49:05.258Z,11.40
2018-10-18T11:50:10.888Z,12.40
2018-10-18T11:51:16.340Z,11.90
2018-10-18T11:52:21.880Z,12.10
2018-10-18T11:53:27.421Z,11.30
2018-10-18T11:54:32.964Z,11.60
2018-10-18T11:55:38.504Z,11.30
2018-10-18T11:56:44.040Z,10.80
2018-10-18T11:57:49.584Z,10.00
2018-10-18T11:58:55.127Z,10.00
2018-10-18T12:00:00.661Z,10.70
2018-10-18T12:01:06.220Z,10.40
2018-10-18T12:02:11.837Z,10.60
2018-10-18T12:03:17.279Z,10.50
2018-10-18T12:04:22.821Z,9.50
2018-10-18T12:05:28.362Z,10.10
2018-10-18T12:06:33.907Z,10.60
2018-10-18T12:07:39.440Z,10.50
2018-10-18T12:08:44.980Z,9.70
2018-10-18T12:09:50.522Z,10.30
2018-10-18T12:10:56.093Z,10.20
2018-10-18T12:12:01.601Z,10.10
2018-10-18T12:13:07.143Z,11.00
2018-10-18T12:14:12.743Z,10.10
2018-10-18T12:15:18.218Z,10.70
2018-10-18T12:16:23.765Z,10.80
2018-10-18T12:17:29.301Z,9.80
2018-10-18T12:18:34.840Z,11.10
2018-10-18T12:19:40.380Z,10.10
2018-10-18T12:20:45.912Z,8.50
2018-10-18T12:21:51.463Z,8.90
2018-10-18T12:22:57.010Z,7.80
2018-10-18T12:24:02.545Z,8.10
2018-10-18T12:25:08.077Z,6.80
2018-10-18T12:26:13.685Z,6.60
2018-10-18T12:27:19.163Z,5.80
2018-10-18T12:28:24.704Z,5.80
2018-10-18T12:29:30.243Z,6.20
2018-10-18T12:30:35.776Z,6.20
2018-10-18T12:31:41.321Z,5.60
2018-10-18T12:32:46.863Z,6.30
2018-10-18T12:33:52.396Z,6.00
2018-10-18T12:34:57.974Z,5.40
2018-10-18T12:36:03.478Z,5.50
2018-10-18T12:37:09.016Z,5.90
2018-10-18T12:38:14.728Z,6.20
2018-10-18T12:39:20.101Z,6.40
2018-10-18T12:40:25.657Z,5.00
2018-10-18T12:41:31.321Z,3.70
2018-10-18T12:42:36.719Z,4.80
2018-10-18T12:43:42.261Z,4.60
2018-10-18T12:44:47.794Z,4.40
2018-10-18T12:45:53.336Z,4.30
2018-10-18T12:46:58.875Z,4.00
2018-10-18T12:48:04.475Z,4.50
2018-10-18T12:49:09.957Z,4.90
2018-10-18T12:50:15.553Z,4.10
2018-10-18T12:51:21.030Z,4.50
2018-10-18T12:52:26.573Z,4.50
2018-10-18T12:53:32.122Z,5.00
2018-10-18T12:54:37.713Z,4.90
2018-10-18T12:55:43.193Z,4.80
2018-10-18T12:56:48.734Z,4.80
2018-10-18T12:57:54.272Z,4.60
2018-10-18T12:58:59.811Z,5.30
2018-10-18T13:00:05.393Z,5.10
2018-10-18T13:01:10.886Z,4.50
2018-10-18T13:02:16.487Z,4.20
2018-10-18T13:03:21.972Z,4.70
2018-10-18T13:04:27.509Z,3.60
2018-10-18T13:05:33.049Z,4.00
2018-10-18T13:06:38.587Z,4.40
2018-10-18T13:07:44.127Z,4.70
2018-10-18T13:08:49.670Z,4.00
2018-10-18T13:09:55.209Z,4.10
2018-10-18T13:11:00.744Z,3.70
2018-10-18T13:12:06.317Z,4.50
2018-10-18T13:13:11.827Z,4.30
2018-10-18T13:14:17.415Z,3.80
2018-10-18T13:15:22.902Z,3.80
2018-10-18T13:16:28.443Z,3.90
2018-10-18T13:17:33.981Z,4.50
2018-10-18T13:18:39.523Z,3.70
2018-10-18T13:19:45.065Z,4.00
2018-10-18T13:20:50.608Z,4.00
2018-10-18T13:21:56.142Z,3.60
2018-10-18T13:23:01.682Z,3.60
2018-10-18T13:24:07.280Z,4.30
2018-10-18T13:25:12.814Z,4.10
2018-10-18T13:26:18.367Z,3.70
2018-10-18T13:27:23.839Z,3.90
2018-10-18T13:28:29.375Z,3.30
2018-10-18T13:29:34.942Z,3.80
2018-10-18T13:30:40.467Z,3.60
2018-10-18T13:31:45.995Z,3.50
2018-10-18T13:32:51.537Z,3.40
2018-10-18T13:33:57.089Z,3.30
2018-10-18T13:35:02.613Z,2.70
2018-10-18T13:36:08.199Z,3.10
2018-10-18T13:37:13.692Z,3.10
2018-10-18T13:38:19.234Z,3.50
2018-10-18T13:39:24.775Z,3.50
2018-10-18T13:40:30.362Z,3.50
2018-10-18T13:41:35.852Z,3.30
2018-10-18T13:42:41.392Z,3.50
2018-10-18T13:43:46.928Z,3.30
2018-10-18T13:44:55.440Z,3.20
2018-10-18T13:45:58.012Z,3.00
2018-10-18T13:47:03.547Z,2.70
2018-10-18T13:48:09.176Z,3.10
2018-10-18T13:49:14.629Z,3.40
2018-10-18T13:50:20.276Z,3.30
2018-10-18T13:51:25.703Z,3.10
2018-10-18T13:52:31.238Z,2.20
2018-10-18T13:53:36.782Z,3.20
2018-10-18T13:54:42.324Z,3.50
2018-10-18T13:55:47.862Z,2.60
2018-10-18T13:56:53.396Z,3.00
2018-10-18T13:57:58.941Z,2.90
2018-10-18T13:59:04.540Z,2.70
2018-10-18T14:00:10.048Z,3.00
2018-10-18T14:01:15.556Z,2.80
2018-10-18T14:02:21.111Z,2.80
2018-10-18T14:03:26.636Z,2.60
2018-10-18T14:04:32.175Z,3.10
2018-10-18T14:05:37.774Z,3.30
2018-10-18T14:06:43.263Z,3.00
2018-10-18T14:07:48.818Z,2.50
2018-10-18T14:08:54.339Z,3.20
2018-10-18T14:09:59.873Z,2.90
2018-10-18T14:11:05.431Z,2.20
2018-10-18T14:12:10.955Z,2.80
2018-10-18T14:13:16.494Z,2.40
2018-10-18T14:14:22.030Z,2.00
2018-10-18T14:15:27.577Z,2.30
2018-10-18T14:16:33.109Z,2.20
2018-10-18T14:17:38.744Z,2.40
2018-10-18T14:18:44.190Z,2.70
2018-10-18T14:19:49.735Z,2.20
2018-10-18T14:20:55.267Z,2.30
2018-10-18T14:22:00.809Z,2.20
2018-10-18T14:23:06.392Z,1.90
2018-10-18T14:24:11.889Z,1.70
2018-10-18T14:25:17.426Z,2.00
2018-10-18T14:26:22.965Z,2.30
2018-10-18T14:27:28.507Z,2.10
2018-10-18T14:28:34.044Z,1.80
2018-10-18T14:29:39.580Z,2.00
2018-10-18T14:30:45.169Z,1.80
2018-10-18T14:31:50.664Z,1.70
2018-10-18T14:32:56.203Z,1.80
2018-10-18T14:34:01.745Z,1.80
2018-10-18T14:35:07.353Z,2.50
2018-10-18T14:36:12.820Z,2.60
2018-10-18T14:37:18.359Z,2.70
2018-10-18T14:38:23.959Z,2.30
2018-10-18T14:39:29.440Z,2.20
2018-10-18T14:40:34.975Z,2.50
2018-10-18T14:41:40.516Z,2.00
2018-10-18T14:42:46.058Z,2.40
2018-10-18T14:43:52.520Z,2.00
2018-10-18T14:44:57.195Z,2.10
2018-10-18T14:46:02.675Z,2.30
2018-10-18T14:47:08.326Z,2.60
2018-10-18T14:48:13.751Z,2.20
2018-10-18T14:49:19.294Z,1.80
2018-10-18T14:50:25.020Z,1.70
2018-10-18T14:51:30.962Z,2.20
2018-10-18T14:52:35.912Z,2.00
2018-10-18T14:53:41.446Z,1.50
2018-10-18T14:54:46.987Z,1.70
2018-10-18T14:55:52.563Z,1.60
2018-10-18T14:56:58.068Z,1.60
2018-10-18T14:58:03.603Z,1.70
2018-10-18T14:59:09.204Z,2.00
2018-10-18T15:00:14.693Z,2.60
2018-10-18T15:01:20.223Z,2.00
2018-10-18T15:02:25.766Z,2.10
2018-10-18T15:03:31.301Z,1.80
2018-10-18T15:04:36.897Z,1.70
2018-10-18T15:05:42.382Z,2.30
2018-10-18T15:06:47.919Z,2.70
2018-10-18T15:07:53.474Z,2.20
2018-10-18T15:08:58.996Z,2.20
2018-10-18T15:10:04.535Z,2.10
2018-10-18T15:11:10.144Z,2.00
2018-10-18T15:12:15.617Z,2.30
2018-10-18T15:13:21.156Z,2.40
2018-10-18T15:14:26.692Z,2.10
2018-10-18T15:15:32.233Z,2.10
2018-10-18T15:16:37.771Z,2.40
2018-10-18T15:17:43.970Z,2.90
2018-10-18T15:18:48.852Z,3.60
2018-10-18T15:19:54.407Z,4.00
2018-10-18T15:20:59.928Z,2.80
2018-10-18T15:22:05.482Z,1.90
2018-10-18T15:23:11.016Z,1.70
2018-10-18T15:24:16.544Z,1.90
2018-10-18T15:25:22.226Z,1.90
2018-10-18T15:26:27.775Z,1.50
2018-10-18T15:27:33.333Z,1.50
2018-10-18T15:28:38.704Z,1.70
2018-10-18T15:29:44.244Z,1.50
2018-10-18T15:30:49.784Z,1.60
2018-10-18T15:31:55.992Z,1.70
2018-10-18T15:33:00.915Z,1.30
2018-10-18T15:34:06.397Z,1.70
2018-10-18T15:35:12.052Z,1.40
2018-10-18T15:36:17.477Z,1.60
2018-10-18T15:37:23.018Z,1.70
2018-10-18T15:38:28.579Z,1.40
2018-10-18T15:39:34.131Z,1.10
2018-10-18T15:40:39.626Z,1.20
2018-10-18T15:41:45.174Z,1.00
2018-10-18T15:42:50.708Z,1.60
2018-10-18T15:43:56.249Z,1.70
2018-10-18T15:45:01.848Z,1.10
2018-10-18T15:46:07.326Z,1.50
2018-10-18T15:47:12.955Z,1.20
2018-10-18T15:48:18.404Z,1.50
2018-10-18T15:49:23.942Z,1.20
2018-10-18T15:50:29.481Z,1.50
2018-10-18T15:51:35.025Z,1.10
2018-10-18T15:52:40.559Z,1.40
2018-10-18T15:53:46.096Z,1.20
2018-10-18T15:54:51.637Z,1.30